createdAt,value
2022-10-02T00:06:20.884Z,100.00
2022-10-02T00:08:17.405Z,100.00
2022-10-02T00:09:31.637Z,100.00
2022-10-02T00:13:27.610Z,100.00
2022-10-02T00:14:55.544Z,100.00
2022-10-02T00:18:45.358Z,100.00
2022-10-02T00:21:12.052Z,100.00
2022-10-02T00:28:17.321Z,100.00
2022-10-02T00:30:03.260Z,100.00
2022-10-02T00:31:34.063Z,100.00
2022-10-02T00:38:14.659Z,100.00
2022-10-02T00:53:45.371Z,100.00
2022-10-02T00:58:05.228Z,100.00
2022-10-02T00:59:28.000Z,100.00
2022-10-02T01:00:49.520Z,100.00
2022-10-02T01:02:25.763Z,100.00
2022-10-02T01:09:13.949Z,100.00
2022-10-02T01:10:23.859Z,100.00
2022-10-02T01:11:32.033Z,100.00
2022-10-02T01:12:42.167Z,100.00
2022-10-02T01:14:30.159Z,100.00
2022-10-02T01:16:01.926Z,100.00
2022-10-02T01:17:41.460Z,100.00
2022-10-02T01:19:16.701Z,100.00
2022-10-02T01:23:43.894Z,100.00
2022-10-02T01:27:49.808Z,100.00
2022-10-02T01:29:05.320Z,100.00
2022-10-02T01:30:21.176Z,100.00
2022-10-02T01:31:28.901Z,100.00
2022-10-02T01:32:34.396Z,100.00
2022-10-02T01:34:01.176Z,100.00
2022-10-02T01:39:29.881Z,100.00
2022-10-02T01:40:51.860Z,100.00
2022-10-02T01:42:51.261Z,100.00
2022-10-02T01:43:58.594Z,100.00
2022-10-02T01:45:17.393Z,100.00
2022-10-02T01:51:07.997Z,100.00
2022-10-02T01:56:46.729Z,100.00
2022-10-02T02:21:25.318Z,100.00
2022-10-02T02:22:59.258Z,100.00
2022-10-02T02:24:52.866Z,100.00
2022-10-02T02:26:29.056Z,100.00
2022-10-02T02:27:51.956Z,100.00
2022-10-02T02:29:35.801Z,100.00
2022-10-02T02:31:22.923Z,100.00
2022-10-02T02:32:39.813Z,100.00
2022-10-02T02:34:13.836Z,100.00
2022-10-02T02:35:43.696Z,100.00
2022-10-02T02:36:52.981Z,100.00
2022-10-02T02:38:35.215Z,100.00
2022-10-02T02:39:46.746Z,100.00
2022-10-02T02:41:20.269Z,100.00
2022-10-02T02:42:41.318Z,100.00
2022-10-02T02:47:10.058Z,100.00
2022-10-02T02:48:48.186Z,100.00
2022-10-02T02:50:47.937Z,100.00
2022-10-02T02:52:02.538Z,100.00
2022-10-02T02:54:00.715Z,100.00
2022-10-02T02:55:45.050Z,100.00
2022-10-02T02:57:01.741Z,100.00
2022-10-02T02:58:12.352Z,100.00
2022-10-02T02:59:22.755Z,100.00
2022-10-02T03:00:58.769Z,100.00
2022-10-02T03:02:16.035Z,100.00
2022-10-02T03:03:24.558Z,100.00
2022-10-02T03:04:34.946Z,100.00
2022-10-02T03:05:47.636Z,100.00
2022-10-02T03:07:06.531Z,100.00
2022-10-02T03:11:11.101Z,100.00
2022-10-02T03:13:15.127Z,100.00
2022-10-02T03:15:22.953Z,100.00
2022-10-02T03:16:41.541Z,100.00
2022-10-02T03:18:04.829Z,100.00
2022-10-02T03:19:31.498Z,100.00
2022-10-02T03:21:08.728Z,100.00
2022-10-02T03:22:55.086Z,100.00
2022-10-02T03:24:07.416Z,100.00
2022-10-02T03:25:50.355Z,100.00
2022-10-02T03:27:10.067Z,100.00
2022-10-02T03:28:37.362Z,100.00
2022-10-02T03:29:55.122Z,100.00
2022-10-02T03:34:27.044Z,100.00
2022-10-02T03:35:31.503Z,100.00
2022-10-02T03:36:46.510Z,100.00
2022-10-02T03:37:57.955Z,100.00
2022-10-02T03:39:24.812Z,100.00
2022-10-02T03:42:12.057Z,100.00
2022-10-02T03:43:24.005Z,100.00
2022-10-02T03:44:48.019Z,100.00
2022-10-02T03:45:55.519Z,100.00
2022-10-02T03:47:51.089Z,100.00
2022-10-02T03:50:39.125Z,100.00
2022-10-02T03:51:43.893Z,100.00
2022-10-02T03:53:00.541Z,100.00
2022-10-02T03:54:19.624Z,100.00
2022-10-02T03:55:43.841Z,100.00
2022-10-02T03:57:09.151Z,100.00
2022-10-02T03:58:18.634Z,100.00
2022-10-02T03:59:39.197Z,100.00
2022-10-02T04:00:59.740Z,100.00
2022-10-02T04:02:23.073Z,100.00
2022-10-02T04:03:37.507Z,100.00
2022-10-02T04:04:49.668Z,100.00
2022-10-02T04:06:01.836Z,100.00
2022-10-02T04:07:40.202Z,100.00
2022-10-02T04:08:49.955Z,100.00
2022-10-02T04:10:01.188Z,100.00
2022-10-02T04:11:33.472Z,100.00
2022-10-02T04:13:10.836Z,100.00
2022-10-02T04:14:49.985Z,100.00
2022-10-02T04:16:09.165Z,100.00
2022-10-02T04:17:48.046Z,100.00
2022-10-02T04:19:21.869Z,100.00
2022-10-02T04:20:32.946Z,100.00
2022-10-02T04:21:45.549Z,100.00
2022-10-02T04:22:54.101Z,100.00
2022-10-02T04:24:04.440Z,100.00
2022-10-02T04:25:20.248Z,100.00
2022-10-02T04:26:27.226Z,100.00
2022-10-02T04:27:46.333Z,100.00
2022-10-02T04:28:53.379Z,100.00
2022-10-02T04:30:10.551Z,100.00
2022-10-02T04:31:20.609Z,100.00
2022-10-02T04:32:26.878Z,100.00
2022-10-02T04:33:38.361Z,100.00
2022-10-02T04:34:42.373Z,100.00
2022-10-02T04:36:17.016Z,100.00
2022-10-02T04:37:41.501Z,100.00
2022-10-02T04:38:56.707Z,100.00
2022-10-02T04:40:15.317Z,100.00
2022-10-02T04:41:32.059Z,100.00
2022-10-02T04:42:46.018Z,100.00
2022-10-02T04:43:59.964Z,100.00
2022-10-02T04:45:18.568Z,100.00
2022-10-02T04:46:33.936Z,100.00
2022-10-02T04:48:19.189Z,100.00
2022-10-02T04:49:34.511Z,100.00
2022-10-02T04:50:48.110Z,100.00
2022-10-02T04:52:17.621Z,100.00
2022-10-02T04:53:42.894Z,100.00
2022-10-02T04:55:07.530Z,100.00
2022-10-02T04:56:22.448Z,100.00
2022-10-02T04:57:41.817Z,100.00
2022-10-02T04:59:05.939Z,100.00
2022-10-02T05:00:11.707Z,100.00
2022-10-02T05:01:23.242Z,100.00
2022-10-02T05:02:37.799Z,100.00
2022-10-02T05:03:53.146Z,100.00
2022-10-02T05:05:16.659Z,100.00
2022-10-02T05:06:43.961Z,100.00
2022-10-02T05:08:03.030Z,100.00
2022-10-02T05:09:15.758Z,100.00
2022-10-02T05:10:34.182Z,100.00
2022-10-02T05:12:08.387Z,100.00
2022-10-02T05:13:24.107Z,100.00
2022-10-02T05:14:40.589Z,100.00
2022-10-02T05:16:10.907Z,100.00
2022-10-02T05:17:33.146Z,100.00
2022-10-02T05:18:56.898Z,100.00
2022-10-02T05:20:12.131Z,100.00
2022-10-02T05:21:42.269Z,100.00
2022-10-02T05:23:02.693Z,100.00
2022-10-02T05:24:18.324Z,100.00
2022-10-02T05:25:33.269Z,100.00
2022-10-02T05:27:00.235Z,100.00
2022-10-02T05:28:16.001Z,100.00
2022-10-02T05:29:34.118Z,100.00
2022-10-02T05:30:45.133Z,100.00
2022-10-02T05:32:00.469Z,100.00
2022-10-02T05:33:18.930Z,100.00
2022-10-02T05:34:40.835Z,100.00
2022-10-02T05:36:04.117Z,100.00
2022-10-02T05:37:19.469Z,100.00
2022-10-02T05:38:43.681Z,100.00
2022-10-02T05:39:56.912Z,100.00
2022-10-02T05:41:04.106Z,100.00
2022-10-02T05:42:18.687Z,100.00
2022-10-02T05:43:33.362Z,100.00
2022-10-02T05:44:39.088Z,100.00
2022-10-02T05:45:48.925Z,100.00
2022-10-02T05:46:54.636Z,100.00
2022-10-02T05:48:06.804Z,100.00
2022-10-02T05:49:15.773Z,100.00
2022-10-02T05:50:22.798Z,100.00
2022-10-02T05:51:36.911Z,100.00
2022-10-02T05:52:45.625Z,100.00
2022-10-02T05:53:53.322Z,100.00
2022-10-02T05:55:04.229Z,100.00
2022-10-02T05:56:12.729Z,100.00
2022-10-02T05:57:22.981Z,100.00
2022-10-02T05:58:30.415Z,100.00
2022-10-02T05:59:41.298Z,100.00
2022-10-02T06:00:47.870Z,100.00
2022-10-02T06:01:54.528Z,100.00
2022-10-02T06:03:09.497Z,100.00
2022-10-02T06:04:19.257Z,100.00
2022-10-02T06:05:26.511Z,100.00
2022-10-02T06:06:36.662Z,100.00
2022-10-02T06:07:42.609Z,100.00
2022-10-02T06:08:49.952Z,100.00
2022-10-02T06:09:58.274Z,100.00
2022-10-02T06:11:08.757Z,100.00
2022-10-02T06:12:14.590Z,100.00
2022-10-02T06:13:23.866Z,100.00
2022-10-02T06:14:32.422Z,100.00
2022-10-02T06:15:40.528Z,100.00
2022-10-02T06:16:49.222Z,100.00
2022-10-02T06:17:56.507Z,100.00
2022-10-02T06:19:09.869Z,100.00
2022-10-02T06:20:20.149Z,100.00
2022-10-02T06:21:35.852Z,100.00
2022-10-02T06:22:48.895Z,100.00
2022-10-02T06:23:55.334Z,100.00
2022-10-02T06:25:02.429Z,100.00
2022-10-02T06:26:13.128Z,100.00
2022-10-02T06:27:21.503Z,100.00
2022-10-02T06:28:29.654Z,100.00
2022-10-02T06:29:42.553Z,100.00
2022-10-02T06:30:51.368Z,100.00
2022-10-02T06:32:04.586Z,100.00
2022-10-02T06:33:14.503Z,100.00
2022-10-02T06:34:18.070Z,100.00
2022-10-02T06:35:33.225Z,100.00
2022-10-02T06:36:48.788Z,100.00
2022-10-02T06:38:12.123Z,100.00
2022-10-02T06:39:32.056Z,100.00
2022-10-02T06:40:58.878Z,100.00
2022-10-02T06:42:12.300Z,100.00
2022-10-02T06:43:43.611Z,100.00
2022-10-02T06:45:01.139Z,100.00
2022-10-02T06:46:16.416Z,100.00
2022-10-02T06:47:28.318Z,100.00
2022-10-02T06:48:41.268Z,100.00
2022-10-02T06:49:57.058Z,100.00
2022-10-02T06:51:07.725Z,100.00
2022-10-02T06:52:19.848Z,100.00
2022-10-02T06:53:40.367Z,100.00
2022-10-02T06:54:54.486Z,100.00
2022-10-02T06:56:03.791Z,100.00
2022-10-02T06:57:34.169Z,100.00
2022-10-02T06:58:48.911Z,100.00
2022-10-02T07:00:16.185Z,100.00
2022-10-02T07:01:26.078Z,100.00
2022-10-02T07:02:43.590Z,100.00
2022-10-02T07:04:07.267Z,100.00
2022-10-02T07:05:53.553Z,100.00
2022-10-02T07:07:11.592Z,100.00
2022-10-02T07:08:22.881Z,100.00
2022-10-02T07:10:02.429Z,100.00
2022-10-02T07:11:16.019Z,100.00
2022-10-02T07:12:31.534Z,100.00
2022-10-02T07:13:58.068Z,100.00
2022-10-02T07:16:16.951Z,100.00
2022-10-02T07:17:39.485Z,100.00
2022-10-02T07:18:56.126Z,100.00
2022-10-02T07:20:26.712Z,99.92
2022-10-02T07:21:39.395Z,100.00
2022-10-02T07:22:58.505Z,100.00
2022-10-02T07:24:11.460Z,99.07
2022-10-02T07:25:39.963Z,97.56
2022-10-02T07:26:49.349Z,97.14
2022-10-02T07:27:58.800Z,95.94
2022-10-02T07:29:14.648Z,95.79
2022-10-02T07:30:18.675Z,96.44
2022-10-02T07:31:46.381Z,94.79
2022-10-02T07:32:53.866Z,94.92
2022-10-02T07:34:08.024Z,94.84
2022-10-02T07:35:28.151Z,96.53
2022-10-02T07:36:40.270Z,95.67
2022-10-02T07:37:47.705Z,95.18
2022-10-02T07:39:04.788Z,93.98
2022-10-02T07:40:20.531Z,93.08
2022-10-02T07:41:36.513Z,92.70
2022-10-02T07:42:57.034Z,93.27
2022-10-02T07:44:05.153Z,94.08
2022-10-02T07:45:30.193Z,93.44
2022-10-02T07:46:41.194Z,90.96
2022-10-02T07:47:54.493Z,90.20
2022-10-02T07:49:08.509Z,89.57
2022-10-02T07:50:25.698Z,91.11
2022-10-02T07:51:48.200Z,91.89
2022-10-02T07:52:55.966Z,91.58
2022-10-02T07:54:08.116Z,91.43
2022-10-02T07:55:17.899Z,90.69
2022-10-02T07:56:25.510Z,90.94
2022-10-02T07:57:36.361Z,91.07
2022-10-02T07:58:45.438Z,89.97
2022-10-02T07:59:50.208Z,89.30
2022-10-02T08:01:01.444Z,89.82
2022-10-02T08:02:09.817Z,89.91
2022-10-02T08:03:17.545Z,90.36
2022-10-02T08:04:34.612Z,90.31
2022-10-02T08:05:44.879Z,89.71
2022-10-02T08:06:49.017Z,88.93
2022-10-02T08:07:56.377Z,88.94
2022-10-02T08:09:03.051Z,88.77
2022-10-02T08:10:10.262Z,89.05
2022-10-02T08:11:18.087Z,88.36
2022-10-02T08:12:29.085Z,88.16
2022-10-02T08:13:35.589Z,87.91
2022-10-02T08:14:42.247Z,88.47
2022-10-02T08:15:53.544Z,87.92
2022-10-02T08:16:59.527Z,89.34
2022-10-02T08:18:30.450Z,89.44
2022-10-02T08:19:39.668Z,89.57
2022-10-02T08:20:44.176Z,89.17
2022-10-02T08:21:55.929Z,88.33
2022-10-02T08:23:05.487Z,89.59
2022-10-02T08:24:14.888Z,89.40
2022-10-02T08:25:21.588Z,88.80
2022-10-02T08:26:35.387Z,89.21
2022-10-02T08:27:49.578Z,89.88
2022-10-02T08:28:58.279Z,89.22
2022-10-02T08:30:07.919Z,86.73
2022-10-02T08:31:13.719Z,87.62
2022-10-02T08:32:19.706Z,88.73
2022-10-02T08:33:24.580Z,87.62
2022-10-02T08:34:31.158Z,86.93
2022-10-02T08:35:40.739Z,86.32
2022-10-02T08:37:13.467Z,88.29
2022-10-02T08:38:31.947Z,86.68
2022-10-02T08:39:58.122Z,86.80
2022-10-02T08:41:46.552Z,88.07
2022-10-02T08:43:24.503Z,87.82
2022-10-02T08:45:02.698Z,86.68
2022-10-02T08:46:40.909Z,88.07
2022-10-02T08:48:11.360Z,90.45
2022-10-02T08:49:50.218Z,89.90
2022-10-02T08:51:27.814Z,89.33
2022-10-02T08:53:00.361Z,85.98
2022-10-02T08:54:29.297Z,85.24
2022-10-02T08:55:55.637Z,85.06
2022-10-02T08:57:16.348Z,84.46
2022-10-02T08:58:41.026Z,84.58
2022-10-02T09:00:02.568Z,85.74
2022-10-02T09:01:24.753Z,86.34
2022-10-02T09:03:06.729Z,87.34
2022-10-02T09:04:45.758Z,86.60
2022-10-02T09:06:41.368Z,87.66
2022-10-02T09:08:14.174Z,87.36
2022-10-02T09:10:06.007Z,87.44
2022-10-02T09:11:37.478Z,86.36
2022-10-02T09:13:14.969Z,85.94
2022-10-02T09:14:43.901Z,85.83
2022-10-02T09:15:49.055Z,84.76
2022-10-02T09:17:12.057Z,86.25
2022-10-02T09:18:25.397Z,85.03
2022-10-02T09:19:41.958Z,83.18
2022-10-02T09:21:11.408Z,81.81
2022-10-02T09:22:30.158Z,81.00
2022-10-02T09:24:09.675Z,81.83
2022-10-02T09:25:29.959Z,80.98
2022-10-02T09:26:43.215Z,80.21
2022-10-02T09:28:22.753Z,79.29
2022-10-02T09:29:42.429Z,79.44
2022-10-02T09:31:09.066Z,79.74
2022-10-02T09:33:04.508Z,79.49
2022-10-02T09:34:53.883Z,78.70
2022-10-02T09:36:35.543Z,78.31
2022-10-02T09:38:11.322Z,77.52
2022-10-02T09:39:52.019Z,76.90
2022-10-02T09:41:46.709Z,78.37
2022-10-02T09:43:38.626Z,76.87
2022-10-02T09:45:10.188Z,77.60
2022-10-02T09:46:51.356Z,75.75
2022-10-02T09:48:22.142Z,75.96
2022-10-02T09:50:16.182Z,76.99
2022-10-02T09:52:11.550Z,74.30
2022-10-02T09:53:54.546Z,73.51
2022-10-02T09:55:35.553Z,73.56
2022-10-02T09:57:18.196Z,74.38
2022-10-02T09:58:59.376Z,74.47
2022-10-02T10:00:14.938Z,74.91
2022-10-02T10:01:35.185Z,75.28
2022-10-02T10:03:22.950Z,73.98
2022-10-02T10:05:05.139Z,74.76
2022-10-02T10:06:48.109Z,73.55
2022-10-02T10:08:30.362Z,72.15
2022-10-02T10:10:10.398Z,71.22
2022-10-02T10:11:36.102Z,70.81
2022-10-02T10:13:03.946Z,71.67
2022-10-02T10:14:31.924Z,72.13
2022-10-02T10:16:30.952Z,70.96
2022-10-02T10:18:10.057Z,69.24
2022-10-02T10:19:48.518Z,69.52
2022-10-02T10:21:08.664Z,70.91
2022-10-02T10:22:49.949Z,69.33
2022-10-02T10:24:26.549Z,69.49
2022-10-02T10:25:52.087Z,67.55
2022-10-02T10:27:17.288Z,69.68
2022-10-02T10:28:55.557Z,67.80
2022-10-02T10:30:15.563Z,67.92
2022-10-02T10:32:01.759Z,67.57
2022-10-02T10:33:41.527Z,70.16
2022-10-02T10:35:29.857Z,67.94
2022-10-02T10:37:23.009Z,68.31
2022-10-02T10:38:42.126Z,69.93
2022-10-02T10:40:16.728Z,66.46
2022-10-02T10:42:04.145Z,66.23
2022-10-02T10:43:53.026Z,68.55
2022-10-02T10:45:26.583Z,69.97
2022-10-02T10:46:59.289Z,69.85
2022-10-02T10:48:30.395Z,68.83
2022-10-02T10:50:02.673Z,69.43
2022-10-02T10:51:26.058Z,66.11
2022-10-02T10:52:52.573Z,66.17
2022-10-02T10:54:30.099Z,67.61
2022-10-02T10:56:19.561Z,66.85
2022-10-02T10:57:35.187Z,67.50
2022-10-02T10:58:51.777Z,66.93
2022-10-02T11:00:15.296Z,64.60
2022-10-02T11:01:20.899Z,66.68
2022-10-02T11:02:53.456Z,65.98
2022-10-02T11:04:27.228Z,63.64
2022-10-02T11:06:03.956Z,64.77
2022-10-02T11:07:27.959Z,64.08
2022-10-02T11:09:06.993Z,64.44
2022-10-02T11:10:48.298Z,63.29
2022-10-02T11:12:09.583Z,65.55
2022-10-02T11:15:02.288Z,66.35
2022-10-02T11:16:33.137Z,66.33
2022-10-02T11:18:10.647Z,66.53
2022-10-02T11:19:37.235Z,64.65
2022-10-02T11:21:04.087Z,65.10
2022-10-02T11:22:55.558Z,65.66
2022-10-02T11:24:27.438Z,65.53
2022-10-02T11:25:41.044Z,66.11
2022-10-02T11:27:03.847Z,65.29
2022-10-02T11:28:43.603Z,63.85
2022-10-02T11:30:10.654Z,63.71
2022-10-02T11:31:31.987Z,64.93
2022-10-02T11:32:51.499Z,64.29
2022-10-02T11:34:08.396Z,65.43
2022-10-02T11:35:32.183Z,66.04
2022-10-02T11:36:55.746Z,67.44
2022-10-02T11:38:16.519Z,68.16
2022-10-02T11:39:53.449Z,68.15
2022-10-02T11:41:21.287Z,68.86
2022-10-02T11:42:43.396Z,70.10
2022-10-02T11:44:03.367Z,70.29
2022-10-02T11:45:29.365Z,70.13
2022-10-02T11:46:58.392Z,69.14
2022-10-02T11:48:19.169Z,68.39
2022-10-02T11:49:59.442Z,68.54
2022-10-02T11:51:13.827Z,68.00
2022-10-02T11:53:11.955Z,68.27
2022-10-02T11:54:47.537Z,65.60
2022-10-02T11:56:09.556Z,65.01
2022-10-02T11:57:40.229Z,66.10
2022-10-02T11:59:06.871Z,67.19
2022-10-02T12:00:45.410Z,64.37
2022-10-02T12:02:05.431Z,65.49
2022-10-02T12:03:23.096Z,65.28
2022-10-02T12:04:43.746Z,64.33
2022-10-02T12:06:00.337Z,64.21
2022-10-02T12:07:28.923Z,62.32
2022-10-02T12:08:51.362Z,62.43
2022-10-02T12:10:24.341Z,62.01
2022-10-02T12:11:44.229Z,60.84
2022-10-02T12:13:19.621Z,59.89
2022-10-02T12:14:37.053Z,62.19
2022-10-02T12:15:56.645Z,62.86
2022-10-02T12:17:25.073Z,59.96
2022-10-02T12:18:45.105Z,62.77
2022-10-02T12:20:27.231Z,62.00
2022-10-02T12:22:09.192Z,64.08
2022-10-02T12:23:50.732Z,63.01
2022-10-02T12:25:22.339Z,63.54
2022-10-02T12:26:57.753Z,63.20
2022-10-02T12:28:06.807Z,64.00
2022-10-02T12:29:14.128Z,63.61
2022-10-02T12:30:21.725Z,62.44
2022-10-02T12:31:29.630Z,61.93
2022-10-02T12:33:07.713Z,57.41
2022-10-02T12:34:35.651Z,59.54
2022-10-02T12:36:09.577Z,59.86
2022-10-02T12:37:20.377Z,60.01
2022-10-02T12:38:34.885Z,59.74
2022-10-02T12:39:49.418Z,60.62
2022-10-02T12:41:02.468Z,60.45
2022-10-02T12:42:33.277Z,58.02
2022-10-02T12:44:13.939Z,59.11
2022-10-02T12:45:47.894Z,59.06
2022-10-02T12:47:11.480Z,59.14
2022-10-02T12:48:31.998Z,60.86
2022-10-02T12:49:45.879Z,61.14
2022-10-02T12:51:10.649Z,60.61
2022-10-02T12:52:36.113Z,60.72
2022-10-02T12:54:10.949Z,59.45
2022-10-02T12:55:44.756Z,60.25
2022-10-02T12:57:44.037Z,60.28
2022-10-02T12:58:58.241Z,60.78
2022-10-02T13:00:04.546Z,59.69
2022-10-02T13:01:32.803Z,55.94
2022-10-02T13:03:21.868Z,54.31
2022-10-02T13:04:53.147Z,54.91
2022-10-02T13:06:33.106Z,53.89
2022-10-02T13:08:05.569Z,56.83
2022-10-02T13:09:18.348Z,58.85
2022-10-02T13:10:24.630Z,59.01
2022-10-02T13:11:38.489Z,59.22
2022-10-02T13:12:57.393Z,59.58
2022-10-02T13:14:15.942Z,58.88
2022-10-02T13:15:55.479Z,59.87
2022-10-02T13:17:37.553Z,60.62
2022-10-02T13:19:16.487Z,60.84
2022-10-02T13:20:29.306Z,61.07
2022-10-02T13:21:49.693Z,61.37
2022-10-02T13:23:01.738Z,61.50
2022-10-02T13:24:30.197Z,61.63
2022-10-02T13:27:18.987Z,62.00
2022-10-02T13:28:58.666Z,62.26
2022-10-02T13:30:08.154Z,62.85
2022-10-02T13:31:18.536Z,63.16
2022-10-02T13:32:51.758Z,63.58
2022-10-02T13:34:13.581Z,64.67
2022-10-02T13:35:50.438Z,65.93
2022-10-02T13:39:38.344Z,69.75
2022-10-02T13:40:47.931Z,71.05
2022-10-02T13:42:03.260Z,72.23
2022-10-02T13:43:31.928Z,74.10
2022-10-02T13:45:00.569Z,75.18
2022-10-02T13:46:19.379Z,75.75
2022-10-02T13:47:44.375Z,77.27
2022-10-02T13:48:57.394Z,78.62
2022-10-02T13:50:17.478Z,80.73
2022-10-02T13:51:26.824Z,81.48
2022-10-02T13:52:34.356Z,81.01
2022-10-02T13:54:09.454Z,81.78
2022-10-02T13:55:23.075Z,81.31
2022-10-02T13:56:38.442Z,80.40
2022-10-02T13:57:57.242Z,80.29
2022-10-02T13:59:22.062Z,80.36
2022-10-02T14:00:46.935Z,79.84
2022-10-02T14:02:01.907Z,79.82
2022-10-02T14:03:12.251Z,80.07
2022-10-02T14:04:25.102Z,80.44
2022-10-02T14:05:36.850Z,80.72
2022-10-02T14:06:43.457Z,80.52
2022-10-02T14:07:58.701Z,80.42
2022-10-02T14:09:42.289Z,81.42
2022-10-02T14:10:54.543Z,81.36
2022-10-02T14:12:16.600Z,81.30
2022-10-02T14:13:36.273Z,80.90
2022-10-02T14:15:19.823Z,81.29
2022-10-02T14:16:34.544Z,82.00
2022-10-02T14:17:49.267Z,81.59
2022-10-02T14:19:37.197Z,81.18
2022-10-02T14:20:46.078Z,80.91
2022-10-02T14:21:58.375Z,80.47
2022-10-02T14:23:13.326Z,80.61
2022-10-02T14:24:54.773Z,80.42
2022-10-02T14:26:18.241Z,80.62
2022-10-02T14:28:02.806Z,80.23
2022-10-02T14:29:22.641Z,80.08
2022-10-02T14:30:31.628Z,80.43
2022-10-02T14:31:51.121Z,80.65
2022-10-02T14:33:01.309Z,80.70
2022-10-02T14:34:22.033Z,80.57
2022-10-02T14:35:33.471Z,80.45
2022-10-02T14:36:44.343Z,80.41
2022-10-02T14:38:14.654Z,80.60
2022-10-02T14:39:30.468Z,80.79
2022-10-02T14:40:43.174Z,80.88
2022-10-02T14:42:15.879Z,80.93
2022-10-02T14:44:03.781Z,80.98
2022-10-02T14:45:38.491Z,81.32
2022-10-02T14:46:59.784Z,81.65
2022-10-02T14:48:35.792Z,81.71
2022-10-02T14:50:00.469Z,81.84
2022-10-02T14:51:14.562Z,82.30
2022-10-02T14:52:25.699Z,82.19
2022-10-02T14:53:37.042Z,82.04
2022-10-02T14:54:52.280Z,81.77
2022-10-02T14:56:28.052Z,81.85
2022-10-02T14:57:52.123Z,81.53
2022-10-02T14:59:10.163Z,81.35
2022-10-02T15:00:19.325Z,81.41
2022-10-02T15:01:39.592Z,81.72
2022-10-02T15:03:10.604Z,81.53
2022-10-02T15:04:40.077Z,82.21
2022-10-02T15:06:00.627Z,82.43
2022-10-02T15:07:16.224Z,82.48
2022-10-02T15:08:32.256Z,82.55
2022-10-02T15:10:09.839Z,82.88
2022-10-02T15:11:26.007Z,83.42
2022-10-02T15:12:44.960Z,83.49
2022-10-02T15:13:52.188Z,83.77
2022-10-02T15:15:04.361Z,83.95
2022-10-02T15:16:39.222Z,83.99
2022-10-02T15:18:00.566Z,84.15
2022-10-02T15:19:11.647Z,83.84
2022-10-02T15:20:24.129Z,83.90
2022-10-02T15:21:31.450Z,83.97
2022-10-02T15:22:40.310Z,84.32
2022-10-02T15:23:47.024Z,84.68
2022-10-02T15:24:55.810Z,84.94
2022-10-02T15:26:21.038Z,85.04
2022-10-02T15:27:25.389Z,85.11
2022-10-02T15:28:42.012Z,85.41
2022-10-02T15:29:53.661Z,85.54
2022-10-02T15:31:01.142Z,85.96
2022-10-02T15:32:43.718Z,85.61
2022-10-02T15:33:57.171Z,86.89
2022-10-02T15:35:08.334Z,86.34
2022-10-02T15:36:24.766Z,87.12
2022-10-02T15:37:33.392Z,87.26
2022-10-02T15:38:54.226Z,87.79
2022-10-02T15:40:09.355Z,87.97
2022-10-02T15:41:32.313Z,88.05
2022-10-02T15:42:50.047Z,88.38
2022-10-02T15:44:07.051Z,88.93
2022-10-02T15:45:24.282Z,89.47
2022-10-02T15:46:33.855Z,89.32
2022-10-02T15:47:52.810Z,89.95
2022-10-02T15:49:07.001Z,90.73
2022-10-02T15:50:20.995Z,91.48
2022-10-02T15:51:47.502Z,91.97
2022-10-02T15:52:58.073Z,92.98
2022-10-02T15:54:11.930Z,92.49
2022-10-02T15:55:21.495Z,93.15
2022-10-02T15:56:55.388Z,92.64
2022-10-02T15:58:09.233Z,93.11
2022-10-02T15:59:26.350Z,92.76
2022-10-02T16:00:33.639Z,93.26
2022-10-02T16:01:45.482Z,93.72
2022-10-02T16:02:58.298Z,93.49
2022-10-02T16:04:08.172Z,93.83
2022-10-02T16:05:23.248Z,93.53
2022-10-02T16:06:40.991Z,94.33
2022-10-02T16:08:18.889Z,93.93
2022-10-02T16:09:36.556Z,94.74
2022-10-02T16:11:02.973Z,95.05
2022-10-02T16:12:19.647Z,94.55
2022-10-02T16:13:49.319Z,94.33
2022-10-02T16:15:00.382Z,93.93
2022-10-02T16:16:08.671Z,93.52
2022-10-02T16:17:38.187Z,93.33
2022-10-02T16:18:51.019Z,94.35
2022-10-02T16:20:15.292Z,94.01
2022-10-02T16:21:43.502Z,93.96
2022-10-02T16:22:59.220Z,93.82
2022-10-02T16:24:15.973Z,93.38
2022-10-02T16:25:36.811Z,93.90
2022-10-02T16:27:11.022Z,93.83
2022-10-02T16:28:24.884Z,94.91
2022-10-02T16:29:32.829Z,94.74
2022-10-02T16:30:56.412Z,94.38
2022-10-02T16:32:18.615Z,94.00
2022-10-02T16:33:30.012Z,94.59
2022-10-02T16:34:43.449Z,94.64
2022-10-02T16:36:11.002Z,94.61
2022-10-02T16:37:24.139Z,94.84
2022-10-02T16:38:42.888Z,94.87
2022-10-02T16:40:23.095Z,95.61
2022-10-02T16:41:56.427Z,94.95
2022-10-02T16:43:59.515Z,95.60
2022-10-02T16:47:05.796Z,96.35
2022-10-02T16:49:02.420Z,96.42
2022-10-02T16:50:16.953Z,96.58
2022-10-02T16:51:45.487Z,96.08
2022-10-02T16:52:56.052Z,96.63
2022-10-02T16:54:13.685Z,95.83
2022-10-02T16:55:41.434Z,95.89
2022-10-02T16:56:55.090Z,96.49
2022-10-02T17:00:56.958Z,96.90
2022-10-02T17:05:55.829Z,98.73
2022-10-02T17:07:07.158Z,98.13
2022-10-02T17:09:13.178Z,96.63
2022-10-02T17:10:42.055Z,97.55
2022-10-02T17:11:57.979Z,97.32
2022-10-02T17:15:36.659Z,98.22
2022-10-02T17:17:11.740Z,97.77
2022-10-02T17:22:03.121Z,99.26
2022-10-02T17:23:29.139Z,98.38
2022-10-02T17:24:49.199Z,98.39
2022-10-02T17:26:22.120Z,97.48
2022-10-02T17:29:04.898Z,97.50
2022-10-02T17:31:36.433Z,98.61
2022-10-02T17:32:54.621Z,97.62
2022-10-02T17:40:39.469Z,99.24
2022-10-02T17:47:40.048Z,98.61
2022-10-02T17:49:38.216Z,98.49
2022-10-02T18:17:44.596Z,99.64
2022-10-02T18:19:31.194Z,98.73
2022-10-02T18:21:02.387Z,98.55
2022-10-02T18:22:39.605Z,98.68
2022-10-02T18:24:11.849Z,99.10
2022-10-02T18:25:51.245Z,99.10
2022-10-02T18:27:14.691Z,99.67
2022-10-02T18:28:44.215Z,99.49
2022-10-02T18:30:03.882Z,100.00
2022-10-02T18:31:28.825Z,100.00
2022-10-02T18:33:07.042Z,100.00
2022-10-02T18:34:26.836Z,100.00
2022-10-02T18:35:40.587Z,100.00
2022-10-02T18:37:02.008Z,100.00
2022-10-02T18:38:14.302Z,100.00
2022-10-02T18:39:23.671Z,100.00
2022-10-02T18:40:30.622Z,100.00
2022-10-02T18:41:56.730Z,100.00
2022-10-02T18:43:21.552Z,100.00
2022-10-02T18:44:55.847Z,100.00
2022-10-02T18:46:04.973Z,100.00
2022-10-02T18:47:20.469Z,100.00
2022-10-02T18:48:34.960Z,100.00
2022-10-02T18:49:56.079Z,100.00
2022-10-02T18:51:13.264Z,100.00
2022-10-02T18:52:41.994Z,100.00
2022-10-02T18:53:57.130Z,100.00
2022-10-02T18:55:29.691Z,100.00
2022-10-02T18:56:51.729Z,100.00
2022-10-02T18:58:07.738Z,100.00
2022-10-02T18:59:22.465Z,100.00
2022-10-02T19:00:47.720Z,100.00
2022-10-02T19:02:03.610Z,100.00
2022-10-02T19:03:20.223Z,100.00
2022-10-02T19:04:34.715Z,100.00
2022-10-02T19:05:39.918Z,100.00
2022-10-02T19:06:51.677Z,100.00
2022-10-02T19:08:06.670Z,100.00
2022-10-02T19:09:20.559Z,100.00
2022-10-02T19:10:30.150Z,100.00
2022-10-02T19:11:45.921Z,100.00
2022-10-02T19:12:52.753Z,100.00
2022-10-02T19:16:01.676Z,100.00
2022-10-02T19:17:08.847Z,100.00
2022-10-02T19:18:20.762Z,100.00
2022-10-02T19:19:25.563Z,100.00
2022-10-02T19:20:37.847Z,100.00
2022-10-02T19:21:43.005Z,100.00
2022-10-02T19:22:47.379Z,100.00
2022-10-02T19:24:04.905Z,100.00
2022-10-02T19:25:16.361Z,100.00
2022-10-02T19:26:33.719Z,100.00
2022-10-02T19:27:39.353Z,100.00
2022-10-02T19:28:49.483Z,100.00
2022-10-02T19:29:58.279Z,100.00
2022-10-02T19:31:27.337Z,100.00
2022-10-02T19:32:33.313Z,100.00
2022-10-02T19:33:51.510Z,100.00
2022-10-02T19:35:05.144Z,100.00
2022-10-02T19:36:16.519Z,100.00
2022-10-02T19:37:27.332Z,100.00
2022-10-02T19:38:35.008Z,100.00
2022-10-02T19:39:42.165Z,100.00
2022-10-02T19:40:55.502Z,100.00
2022-10-02T19:42:09.527Z,100.00
2022-10-02T19:43:19.483Z,100.00
2022-10-02T19:44:28.552Z,100.00
2022-10-02T19:45:35.863Z,100.00
2022-10-02T19:46:44.134Z,100.00
2022-10-02T19:47:49.210Z,100.00
2022-10-02T19:48:57.013Z,100.00
2022-10-02T19:50:03.240Z,100.00
2022-10-02T19:51:09.790Z,100.00
2022-10-02T19:52:40.062Z,100.00
2022-10-02T19:53:51.117Z,100.00
2022-10-02T19:54:54.848Z,100.00
2022-10-02T19:56:00.846Z,100.00
2022-10-02T19:57:18.749Z,100.00
2022-10-02T19:58:24.439Z,100.00
2022-10-02T19:59:45.087Z,100.00